Time;durP1;ratioP1;P1;durP2;ratioP2;P2;SDS_P1;SDS_P2;PMS_P1;PMS_P2;Temp;Humidity;BMP_temperature;BMP_pressure;BME280_temperature;BME280_humidity;BME280_pressure;Samples;Min_cycle;Max_cycle;Signal;HPM_P1;HPM_P2
2022/01/12 00:01:01;;;;;;;57.28;23.17;;;2.40;99.90;;;;;;5048185;28;20017;-44
2022/01/12 00:03:27;;;;;;;57.33;24.45;;;2.40;99.90;;;;;;5048282;28;20047;-45
2022/01/12 00:05:53;;;;;;;58.92;25.25;;;2.40;99.90;;;;;;5048000;28;20025;-45
2022/01/12 00:08:18;;;;;;;52.67;23.58;;;2.50;99.90;;;;;;5048327;28;20100;-45
2022/01/12 00:10:44;;;;;;;60.33;23.85;;;2.50;99.90;;;;;;5068065;28;20020;-46
2022/01/12 00:13:10;;;;;;;54.92;23.58;;;2.50;99.90;;;;;;5081757;28;20021;-46
2022/01/12 00:15:35;;;;;;;61.88;25.50;;;2.50;99.90;;;;;;5087818;28;20082;-45
2022/01/12 00:18:01;;;;;;;54.92;24.15;;;2.60;99.90;;;;;;5091135;28;20486;-47
2022/01/12 00:20:27;;;;;;;55.97;22.58;;;2.50;99.90;;;;;;5092290;28;20114;-45
2022/01/12 00:22:53;;;;;;;60.03;23.95;;;2.50;99.90;;;;;;5092346;28;20076;-44
2022/01/12 00:33:16;;;;;;;48.03;21.63;;;2.60;99.90;;;;;;5092377;28;20047;-45
2022/01/12 00:35:43;;;;;;;58.97;23.30;;;2.70;99.90;;;;;;5089389;28;20317;-45
2022/01/12 00:38:09;;;;;;;45.50;21.50;;;2.60;99.90;;;;;;5083322;28;20032;-44
2022/01/12 00:40:41;;;;;;;52.10;23.25;;;2.70;99.90;;;;;;5092015;28;20103;-45
2022/01/12 00:43:07;;;;;;;49.72;20.98;;;2.70;99.90;;;;;;5092018;28;20108;-48
2022/01/12 00:45:34;;;;;;;49.45;22.52;;;2.70;99.90;;;;;;5090388;28;20103;-45
2022/01/12 00:47:59;;;;;;;53.78;20.83;;;2.70;99.90;;;;;;5092231;28;20522;-45
2022/01/12 00:50:25;;;;;;;47.38;19.80;;;2.60;99.90;;;;;;5091730;28;20110;-45
2022/01/12 00:52:53;;;;;;;46.55;20.80;;;2.60;99.90;;;;;;5091764;28;20031;-45
2022/01/12 00:55:18;;;;;;;46.63;19.92;;;2.60;99.90;;;;;;5091228;28;20051;-45
2022/01/12 00:57:44;;;;;;;44.80;19.67;;;2.60;99.90;;;;;;5091752;28;20024;-44
2022/01/12 01:00:10;;;;;;;39.75;18.75;;;2.60;99.90;;;;;;5091569;28;20064;-45
2022/01/12 01:02:35;;;;;;;46.42;19.38;;;2.70;99.90;;;;;;5090071;28;20024;-47
2022/01/12 01:05:03;;;;;;;45.63;19.70;;;2.80;99.90;;;;;;5090962;28;20032;-45
2022/01/12 01:07:28;;;;;;;42.08;19.55;;;2.80;99.90;;;;;;5082389;28;20059;-44
2022/01/12 01:10:03;;;;;;;40.38;19.17;;;2.80;99.90;;;;;;5089323;28;20383;-44
2022/01/12 01:12:29;;;;;;;43.17;18.23;;;2.70;99.90;;;;;;5091252;28;20028;-46
2022/01/12 01:15:05;;;;;;;41.70;17.75;;;2.80;99.90;;;;;;5091380;28;20030;-44
2022/01/12 01:25:38;;;;;;;37.55;17.13;;;2.90;99.90;;;;;;5090858;28;20542;-44
2022/01/12 01:28:04;;;;;;;31.63;15.43;;;2.90;99.90;;;;;;5090760;28;20028;-45
2022/01/12 01:30:32;;;;;;;34.17;15.55;;;3.00;99.90;;;;;;5091300;28;20024;-45
2022/01/12 01:33:04;;;;;;;34.83;15.35;;;3.00;99.90;;;;;;5091104;28;20040;-47
2022/01/12 01:35:31;;;;;;;29.80;15.65;;;3.00;99.90;;;;;;5088593;28;20030;-45
2022/01/12 01:38:00;;;;;;;34.65;14.65;;;3.10;99.90;;;;;;5082137;28;20422;-46
2022/01/12 01:40:26;;;;;;;31.02;14.10;;;3.10;99.90;;;;;;5090781;28;20030;-44
2022/01/12 01:53:45;;;;;;;31.80;13.90;;;3.20;99.90;;;;;;5090459;28;20420;-44
2022/01/12 01:56:11;;;;;;;30.88;13.52;;;3.20;99.90;;;;;;5089834;28;20020;-45
2022/01/12 01:58:37;;;;;;;33.40;14.65;;;3.20;99.90;;;;;;5090702;28;20070;-45
2022/01/12 02:01:03;;;;;;;30.83;13.75;;;3.10;99.90;;;;;;5090450;28;20389;-46
2022/01/12 02:03:29;;;;;;;28.63;13.45;;;3.20;99.90;;;;;;5090275;28;20146;-44
2022/01/12 02:05:56;;;;;;;31.02;13.38;;;3.20;99.90;;;;;;5087186;28;20023;-44
2022/01/12 02:08:22;;;;;;;27.25;12.95;;;3.20;99.90;;;;;;5082034;28;20115;-44
2022/01/12 02:10:54;;;;;;;30.83;13.15;;;3.20;99.90;;;;;;5090044;28;20225;-45
2022/01/12 02:13:19;;;;;;;25.40;12.32;;;3.20;99.90;;;;;;5090435;28;20027;-44
2022/01/12 02:15:46;;;;;;;25.50;12.45;;;3.20;99.90;;;;;;5089715;28;20024;-45
2022/01/12 02:40:07;;;;;;;25.88;10.95;;;3.30;99.90;;;;;;5051669;28;20043;-45
2022/01/12 02:42:33;;;;;;;20.73;10.93;;;3.40;99.90;;;;;;5077472;28;20113;-46
2022/01/12 02:50:55;;;;;;;24.52;11.32;;;3.40;99.90;;;;;;5049306;28;20075;-45
2022/01/12 02:53:41;;;;;;;21.65;10.07;;;3.40;99.90;;;;;;5049387;28;20028;-45
2022/01/12 02:56:09;;;;;;;22.40;10.23;;;3.40;99.90;;;;;;5048586;28;20483;-45
2022/01/12 02:58:35;;;;;;;20.20;10.57;;;3.50;99.90;;;;;;5049098;28;20048;-46
2022/01/12 03:03:47;;;;;;;20.83;10.43;;;3.50;99.90;;;;;;5049524;28;20032;-45
2022/01/12 03:06:18;;;;;;;21.85;9.82;;;3.50;99.90;;;;;;5048652;28;20021;-45
2022/01/12 03:08:44;;;;;;;;;;;3.50;99.90;;;;;;5049457;28;20033;-45
2022/01/12 03:11:18;;;;;;;21.75;9.32;;;3.50;99.90;;;;;;5065996;28;19911;-45
2022/01/12 03:13:44;;;;;;;22.38;11.65;;;3.50;99.90;;;;;;5080751;28;20107;-44
2022/01/12 03:16:15;;;;;;;20.88;10.18;;;3.50;99.90;;;;;;5088729;28;20626;-44
2022/01/12 03:18:45;;;;;;;26.23;9.85;;;3.50;99.90;;;;;;5089209;28;20481;-44
2022/01/12 03:21:12;;;;;;;25.48;10.98;;;3.50;99.90;;;;;;5089137;28;20409;-45
2022/01/12 03:23:38;;;;;;;27.40;9.80;;;3.50;99.90;;;;;;5088756;28;20039;-44
2022/01/12 03:26:06;;;;;;;18.02;9.90;;;3.40;99.90;;;;;;5088284;28;20474;-44
2022/01/12 03:28:32;;;;;;;24.02;10.60;;;3.40;99.90;;;;;;5088845;28;20028;-45
2022/01/12 03:31:07;;;;;;;18.27;9.48;;;3.40;99.90;;;;;;5089343;28;20352;-44
2022/01/12 03:33:51;;;;;;;27.10;11.40;;;3.30;99.90;;;;;;5088587;28;20024;-44
2022/01/12 03:36:29;;;;;;;22.65;10.45;;;3.30;99.90;;;;;;5088450;28;20024;-45
2022/01/12 03:38:58;;;;;;;25.13;10.30;;;3.30;99.90;;;;;;5087772;28;20024;-47
2022/01/12 03:41:30;;;;;;;21.70;9.85;;;3.30;99.90;;;;;;5078838;28;20205;-45
2022/01/12 03:43:59;;;;;;;25.33;10.32;;;3.30;99.90;;;;;;5080123;28;20024;-47
2022/01/12 03:46:32;;;;;;;19.90;9.80;;;3.30;99.90;;;;;;5081795;28;20469;-48
2022/01/12 03:48:58;;;;;;;20.98;9.73;;;3.30;99.90;;;;;;5049601;28;20082;-45
2022/01/12 03:51:23;;;;;;;19.60;9.32;;;3.30;99.90;;;;;;5059304;28;20028;-45
2022/01/12 03:53:49;;;;;;;18.63;10.45;;;3.40;99.90;;;;;;5061554;28;20040;-47
2022/01/12 03:56:16;;;;;;;16.98;9.13;;;3.40;99.90;;;;;;5062510;28;20040;-45
2022/01/12 03:58:42;;;;;;;16.15;8.88;;;3.50;99.90;;;;;;5062237;28;20040;-45
2022/01/12 04:01:08;;;;;;;17.20;8.63;;;3.50;99.90;;;;;;5062645;28;20406;-45
2022/01/12 04:03:41;;;;;;;20.10;9.40;;;3.50;99.90;;;;;;5060283;28;20024;-45
2022/01/12 04:08:51;;;;;;;21.13;9.07;;;3.50;99.90;;;;;;5063004;28;20058;-45
2022/01/12 04:11:16;;;;;;;18.33;8.75;;;3.60;99.90;;;;;;5059250;28;20316;-45
2022/01/12 04:13:43;;;;;;;18.95;9.43;;;3.60;99.90;;;;;;5067935;28;20021;-45
2022/01/12 04:16:11;;;;;;;16.73;8.80;;;3.50;99.90;;;;;;5060893;28;20498;-46
2022/01/12 04:18:37;;;;;;;19.73;9.73;;;3.60;99.90;;;;;;5058659;28;20029;-45
2022/01/12 04:21:06;;;;;;;15.65;8.10;;;3.60;99.90;;;;;;5062270;28;20106;-45
2022/01/12 04:23:31;;;;;;;19.17;9.25;;;3.60;99.90;;;;;;5062388;28;20020;-47
2022/01/12 04:26:00;;;;;;;22.90;9.02;;;3.60;99.90;;;;;;5061355;28;20082;-45
2022/01/12 04:28:29;;;;;;;18.33;8.60;;;3.70;99.90;;;;;;5060799;28;20029;-44
2022/01/12 04:30:56;;;;;;;15.77;8.55;;;3.70;99.90;;;;;;5066271;28;20024;-45
2022/01/12 04:33:22;;;;;;;18.40;9.00;;;3.70;99.90;;;;;;5071547;28;20016;-44
2022/01/12 04:35:53;;;;;;;21.63;9.07;;;3.70;99.90;;;;;;5071506;28;20465;-44
2022/01/12 04:38:21;;;;;;;13.48;7.95;;;3.70;99.90;;;;;;5071719;28;20040;-45
2022/01/12 04:40:47;;;;;;;18.95;8.48;;;3.70;99.90;;;;;;5073280;28;20110;-45
2022/01/12 04:43:13;;;;;;;17.48;8.32;;;3.70;99.90;;;;;;5083272;28;20063;-45
2022/01/12 04:50:42;;;;;;;20.10;10.07;;;3.70;99.90;;;;;;5078227;28;20028;-45
2022/01/12 04:53:07;;;;;;;24.30;9.65;;;3.70;99.90;;;;;;5059103;28;20107;-45
2022/01/12 04:55:33;;;;;;;16.77;8.60;;;3.60;99.90;;;;;;5060157;28;20162;-45
2022/01/12 04:57:59;;;;;;;18.10;9.07;;;3.60;99.90;;;;;;5060894;28;20124;-45
2022/01/12 05:00:26;;;;;;;18.80;8.80;;;3.60;99.90;;;;;;5067932;28;20039;-45
2022/01/12 05:13:55;;;;;;;16.02;8.82;;;3.70;99.90;;;;;;5081147;28;20031;-45
2022/01/12 05:16:22;;;;;;;17.98;8.85;;;3.60;99.90;;;;;;5082825;28;20501;-45
2022/01/12 05:18:49;;;;;;;18.25;8.70;;;3.70;99.90;;;;;;5071177;28;20491;-45
2022/01/12 05:21:19;;;;;;;17.48;8.27;;;3.70;99.90;;;;;;5070860;28;20107;-45
2022/01/12 05:23:44;;;;;;;16.63;8.43;;;3.70;99.90;;;;;;5070915;28;20020;-46
2022/01/12 05:26:10;;;;;;;19.70;8.75;;;3.70;99.90;;;;;;5070430;28;20021;-44
2022/01/12 05:28:38;;;;;;;16.73;8.38;;;3.70;99.90;;;;;;5070999;28;20047;-44
2022/01/12 05:31:05;;;;;;;16.08;8.55;;;3.70;99.90;;;;;;5070580;28;20424;-45
2022/01/12 05:33:30;;;;;;;15.15;7.20;;;3.80;99.90;;;;;;5070456;28;20251;-45
2022/01/12 05:35:57;;;;;;;17.02;7.60;;;3.80;99.90;;;;;;5070326;28;20085;-45
2022/01/12 05:38:24;;;;;;;16.88;7.35;;;3.80;99.90;;;;;;5070673;28;20295;-45
2022/01/12 05:40:53;;;;;;;16.77;7.82;;;3.80;99.90;;;;;;5071845;28;20033;-44
2022/01/12 05:43:24;;;;;;;16.17;8.40;;;3.80;99.90;;;;;;5082511;28;20385;-44
2022/01/12 05:45:50;;;;;;;14.07;7.65;;;3.80;99.90;;;;;;5090488;28;20043;-44
2022/01/12 05:50:42;;;;;;;15.48;7.20;;;3.80;99.90;;;;;;5050886;28;20041;-45
2022/01/12 05:53:09;;;;;;;14.25;8.43;;;3.90;99.90;;;;;;5050229;28;20039;-44
2022/01/12 05:55:34;;;;;;;15.45;7.40;;;3.90;99.90;;;;;;5049773;28;20040;-44
2022/01/12 05:58:00;;;;;;;14.32;7.55;;;3.80;99.90;;;;;;5057545;28;20514;-45
2022/01/12 06:00:28;;;;;;;12.98;8.30;;;3.80;99.90;;;;;;5060231;28;20025;-44
2022/01/12 06:02:54;;;;;;;17.98;8.15;;;3.70;99.90;;;;;;5058329;28;20482;-44
2022/01/12 06:05:22;;;;;;;14.32;7.63;;;3.70;99.90;;;;;;5059741;28;20021;-45
2022/01/12 06:07:52;;;;;;;14.32;8.00;;;3.70;99.90;;;;;;5057046;28;20390;-46
2022/01/12 06:10:22;;;;;;;17.90;8.90;;;3.70;99.90;;;;;;5060973;28;20031;-45
2022/01/12 06:12:47;;;;;;;16.48;8.95;;;3.70;99.90;;;;;;5067590;28;20120;-45
2022/01/12 06:15:13;;;;;;;19.33;8.68;;;3.70;99.90;;;;;;5066214;28;20407;-45
2022/01/12 06:17:38;;;;;;;14.40;8.20;;;3.70;99.90;;;;;;5059971;28;21147;-44
2022/01/12 06:20:06;;;;;;;15.57;8.63;;;3.70;99.90;;;;;;5070747;28;20546;-45
2022/01/12 06:22:31;;;;;;;17.83;8.13;;;3.70;99.90;;;;;;5069821;28;20059;-45
2022/01/12 06:24:59;;;;;;;13.13;7.40;;;3.70;99.90;;;;;;5071294;28;20339;-45
2022/01/12 06:27:29;;;;;;;12.98;7.15;;;3.70;99.90;;;;;;5070158;28;20587;-45
2022/01/12 06:32:20;;;;;;;21.33;8.55;;;3.70;99.90;;;;;;5068518;28;20028;-46
2022/01/12 06:34:46;;;;;;;17.85;8.35;;;3.70;99.90;;;;;;5073320;28;20036;-44
2022/01/12 06:37:11;;;;;;;16.23;8.18;;;3.70;99.90;;;;;;5069807;28;20432;-47
2022/01/12 06:39:37;;;;;;;16.58;8.30;;;3.70;99.90;;;;;;5069557;28;20032;-45
2022/01/12 06:42:03;;;;;;;13.45;7.32;;;3.70;99.90;;;;;;5070752;28;20055;-44
2022/01/12 06:44:28;;;;;;;17.35;7.97;;;3.70;99.90;;;;;;5062913;28;20111;-46
2022/01/12 06:46:56;;;;;;;21.63;8.65;;;3.70;99.90;;;;;;5060832;28;20032;-46
2022/01/12 06:49:22;;;;;;;17.35;9.02;;;3.70;99.90;;;;;;5065124;28;20115;-45
2022/01/12 06:51:47;;;;;;;14.35;8.73;;;3.70;99.90;;;;;;5070068;28;20032;-45
2022/01/12 06:54:16;;;;;;;17.83;8.55;;;3.70;99.90;;;;;;5074583;28;20111;-45
2022/01/12 06:56:41;;;;;;;18.48;8.45;;;3.70;99.90;;;;;;5081445;28;20071;-45
2022/01/12 06:59:07;;;;;;;18.02;8.93;;;3.70;99.90;;;;;;5057404;28;20036;-48
2022/01/12 07:01:33;;;;;;;19.95;10.60;;;3.70;99.90;;;;;;5058530;28;20065;-45
2022/01/12 07:03:59;;;;;;;19.63;10.32;;;3.60;99.90;;;;;;5058860;28;20176;-46
2022/01/12 07:06:25;;;;;;;19.08;9.60;;;3.70;99.90;;;;;;5059722;28;20028;-44
2022/01/12 07:08:51;;;;;;;17.65;9.48;;;3.70;99.90;;;;;;5059210;28;20044;-46
2022/01/12 07:11:16;;;;;;;15.50;9.57;;;3.60;99.90;;;;;;5056800;28;20040;-45
2022/01/12 07:13:42;;;;;;;20.85;10.60;;;3.60;99.90;;;;;;5068952;28;20145;-45
2022/01/12 07:16:08;;;;;;;21.50;12.30;;;3.60;99.90;;;;;;5064713;28;20118;-44
2022/01/12 07:18:33;;;;;;;22.50;11.93;;;3.60;99.90;;;;;;5071684;28;20107;-45
2022/01/12 07:20:59;;;;;;;21.73;10.95;;;3.60;99.90;;;;;;5065477;28;20421;-45
2022/01/12 07:23:26;;;;;;;24.65;11.90;;;3.60;99.90;;;;;;5048538;28;20055;-45
2022/01/12 07:25:52;;;;;;;26.55;11.73;;;3.60;99.90;;;;;;5048441;28;20024;-45
2022/01/12 07:28:18;;;;;;;25.63;13.00;;;3.60;99.90;;;;;;5051486;28;20036;-45
2022/01/12 07:30:44;;;;;;;26.00;14.85;;;3.60;99.90;;;;;;5063323;28;20028;-45
2022/01/12 07:33:10;;;;;;;28.48;14.60;;;3.60;99.90;;;;;;5049248;28;20393;-45
2022/01/12 07:35:36;;;;;;;25.05;13.90;;;3.60;99.90;;;;;;5052741;28;20024;-45
2022/01/12 07:38:02;;;;;;;27.70;15.38;;;3.60;99.90;;;;;;5066657;28;20033;-45
2022/01/12 07:40:28;;;;;;;28.33;14.80;;;3.60;99.90;;;;;;5059031;28;20039;-45
2022/01/12 07:42:53;;;;;;;26.30;14.23;;;3.60;99.90;;;;;;5068064;28;20012;-45
2022/01/12 07:45:19;;;;;;;33.80;16.98;;;3.60;99.90;;;;;;5067714;28;20553;-49
2022/01/12 07:47:46;;;;;;;29.48;14.98;;;3.60;99.90;;;;;;5052108;28;20037;-44
2022/01/12 07:50:12;;;;;;;28.55;16.35;;;3.60;99.90;;;;;;5060029;28;20229;-45
2022/01/12 07:52:37;;;;;;;27.92;15.13;;;3.60;99.90;;;;;;5048959;28;20087;-45
2022/01/12 07:55:04;;;;;;;35.35;15.48;;;3.60;99.90;;;;;;5048293;28;20033;-45
2022/01/12 07:57:30;;;;;;;28.50;14.57;;;3.60;99.90;;;;;;5047894;28;20251;-45
2022/01/12 07:59:56;;;;;;;31.77;16.95;;;3.60;99.90;;;;;;5057822;28;20490;-46
2022/01/12 08:02:22;;;;;;;38.17;18.23;;;3.70;99.90;;;;;;5050460;28;20542;-44
2022/01/12 08:04:47;;;;;;;35.50;18.70;;;3.70;99.90;;;;;;5053072;28;20698;-45
2022/01/12 08:07:13;;;;;;;34.90;17.63;;;3.70;99.90;;;;;;5068138;28;20520;-45
2022/01/12 08:09:40;;;;;;;37.05;18.23;;;3.70;99.90;;;;;;5066829;28;20071;-45
2022/01/12 08:12:07;;;;;;;34.05;17.13;;;3.70;99.90;;;;;;5049143;28;20108;-44
2022/01/12 08:14:33;;;;;;;32.80;18.00;;;3.70;99.90;;;;;;5047444;28;20124;-45
2022/01/12 08:16:59;;;;;;;35.00;17.60;;;3.70;99.90;;;;;;5051749;28;20464;-46
2022/01/12 08:19:26;;;;;;;33.20;17.42;;;3.70;99.90;;;;;;5051416;28;20059;-45
2022/01/12 08:21:52;;;;;;;39.40;19.50;;;3.70;99.90;;;;;;5059323;28;20025;-44
2022/01/12 08:24:17;;;;;;;35.47;17.92;;;3.70;99.90;;;;;;5067873;28;20599;-46
2022/01/12 08:26:43;;;;;;;37.90;18.30;;;3.70;99.90;;;;;;5061838;28;20116;-45
2022/01/12 08:29:11;;;;;;;41.00;18.95;;;3.80;99.90;;;;;;5057101;28;20085;-45
2022/01/12 08:31:36;;;;;;;37.10;19.75;;;3.80;99.90;;;;;;5063459;28;20605;-44
2022/01/12 08:34:03;;;;;;;39.00;18.90;;;3.80;99.90;;;;;;5058704;28;20111;-47
2022/01/12 08:36:28;;;;;;;40.45;19.80;;;3.90;99.90;;;;;;5059783;28;20033;-45
2022/01/12 08:38:55;;;;;;;45.05;18.10;;;3.90;99.90;;;;;;5060229;28;20040;-45
2022/01/12 08:41:21;;;;;;;35.85;19.45;;;3.90;99.90;;;;;;5062331;28;20074;-45
2022/01/12 08:43:47;;;;;;;40.55;20.85;;;3.90;99.90;;;;;;5064479;28;20020;-46
2022/01/12 08:46:13;;;;;;;37.30;20.45;;;3.90;99.90;;;;;;5066790;28;20531;-45
2022/01/12 08:48:38;;;;;;;36.90;19.17;;;3.90;99.90;;;;;;5062895;28;20482;-48
2022/01/12 08:51:04;;;;;;;42.78;20.73;;;3.90;99.90;;;;;;5065051;28;20478;-46
2022/01/12 08:53:29;;;;;;;41.22;20.88;;;3.90;99.90;;;;;;5062636;28;20013;-45
2022/01/12 08:55:55;;;;;;;46.65;21.90;;;3.90;99.90;;;;;;5058683;28;20040;-46
2022/01/12 08:58:21;;;;;;;44.78;20.40;;;3.90;99.90;;;;;;5068516;28;20042;-46
2022/01/12 09:00:46;;;;;;;45.85;22.67;;;3.90;99.90;;;;;;5059930;28;20064;-46
2022/01/12 09:03:12;;;;;;;49.50;24.48;;;3.90;99.90;;;;;;5052374;28;20055;-46
2022/01/12 09:05:38;;;;;;;52.15;23.98;;;3.90;99.90;;;;;;5051993;28;20067;-45
2022/01/12 09:08:04;;;;;;;49.38;22.83;;;3.90;99.90;;;;;;5065667;28;20478;-45
2022/01/12 09:10:30;;;;;;;50.17;24.80;;;4.00;99.90;;;;;;5055873;28;20115;-45
2022/01/12 09:12:56;;;;;;;49.97;24.70;;;4.00;99.90;;;;;;5057718;28;20614;-45
2022/01/12 09:15:25;;;;;;;44.88;25.27;;;3.90;99.90;;;;;;5059137;28;20036;-47
2022/01/12 09:17:52;;;;;;;52.08;24.17;;;4.00;99.90;;;;;;5059380;28;20027;-45
2022/01/12 09:20:17;;;;;;;53.00;24.88;;;4.00;99.90;;;;;;5057278;28;20053;-45
2022/01/12 09:22:43;;;;;;;55.38;26.52;;;4.00;99.90;;;;;;5061120;28;20025;-45
2022/01/12 09:25:09;;;;;;;50.42;25.55;;;4.10;99.90;;;;;;5066546;28;20025;-45
2022/01/12 09:27:35;;;;;;;46.20;22.60;;;4.10;99.90;;;;;;5065323;28;20032;-46
2022/01/12 09:30:01;;;;;;;53.22;25.58;;;4.10;99.90;;;;;;5072307;28;20443;-47
2022/01/12 09:32:26;;;;;;;47.50;24.33;;;4.10;99.90;;;;;;5069643;28;20032;-45
2022/01/12 09:34:52;;;;;;;50.17;25.25;;;4.10;99.90;;;;;;5056256;28;20029;-47
2022/01/12 09:37:20;;;;;;;58.40;27.10;;;4.10;99.90;;;;;;5048585;28;20044;-45
2022/01/12 09:39:45;;;;;;;56.58;28.38;;;4.10;99.90;;;;;;5054226;28;20021;-45
2022/01/12 09:42:11;;;;;;;52.85;26.80;;;4.10;99.90;;;;;;5055343;28;20395;-45
2022/01/12 09:44:44;;;;;;;51.80;25.98;;;4.10;99.90;;;;;;5049233;28;20104;-45
2022/01/12 09:47:09;;;;;;;48.53;24.73;;;4.10;99.90;;;;;;5052526;28;20042;-45
2022/01/12 09:49:35;;;;;;;49.30;26.92;;;4.10;99.90;;;;;;5059491;28;20037;-48
2022/01/12 09:52:01;;;;;;;54.83;25.50;;;4.20;99.90;;;;;;5066562;28;20467;-45
2022/01/12 09:54:27;;;;;;;46.03;25.13;;;4.20;99.90;;;;;;5064864;28;20032;-45
2022/01/12 09:56:53;;;;;;;55.38;25.92;;;4.20;99.90;;;;;;5059927;28;20441;-48
2022/01/12 09:59:21;;;;;;;51.58;25.85;;;4.20;99.90;;;;;;5064937;28;20042;-46
2022/01/12 10:01:48;;;;;;;54.83;26.73;;;4.30;99.90;;;;;;5062448;28;20035;-45
2022/01/12 10:04:19;;;;;;;46.63;25.02;;;4.20;99.90;;;;;;5070762;28;20027;-45
2022/01/12 10:06:48;;;;;;;56.20;27.27;;;4.20;99.90;;;;;;5075853;28;20021;-45
2022/01/12 10:09:14;;;;;;;57.97;26.58;;;4.20;99.90;;;;;;5069134;28;20036;-45
2022/01/12 10:11:53;;;;;;;59.97;28.23;;;4.20;99.90;;;;;;5065049;28;20082;-45
2022/01/12 10:14:19;;;;;;;55.25;26.77;;;4.10;99.90;;;;;;5062013;28;20033;-45
2022/01/12 10:16:56;;;;;;;62.63;29.60;;;4.10;99.90;;;;;;5061419;28;20040;-45
2022/01/12 10:19:30;;;;;;;61.92;27.17;;;4.10;99.90;;;;;;5057600;28;20084;-45
2022/01/12 10:21:57;;;;;;;55.33;25.08;;;4.10;99.90;;;;;;5050736;28;20029;-45
2022/01/12 10:24:24;;;;;;;55.50;29.48;;;4.10;99.90;;;;;;5052855;28;20055;-45
2022/01/12 10:26:51;;;;;;;68.32;27.73;;;4.10;99.90;;;;;;5057135;28;20025;-46
2022/01/12 10:29:22;;;;;;;58.15;27.48;;;4.10;99.90;;;;;;5058345;28;20170;-46
2022/01/12 10:31:55;;;;;;;59.10;26.08;;;4.00;99.90;;;;;;5052433;28;20103;-45
2022/01/12 10:34:24;;;;;;;52.78;28.52;;;4.10;99.90;;;;;;5048564;28;20040;-45
2022/01/12 10:36:51;;;;;;;64.43;27.95;;;4.00;99.90;;;;;;5050439;28;20056;-44
2022/01/12 10:39:18;;;;;;;61.88;28.88;;;4.10;99.90;;;;;;5058236;28;20028;-46
2022/01/12 10:41:52;;;;;;;64.60;28.83;;;4.10;99.90;;;;;;5055616;28;20028;-45
2022/01/12 10:44:27;;;;;;;68.90;30.27;;;4.10;99.90;;;;;;5067680;28;20101;-44
2022/01/12 10:47:08;;;;;;;62.40;29.63;;;4.10;99.90;;;;;;5055583;28;20033;-44
2022/01/12 10:49:36;;;;;;;65.78;29.42;;;4.10;99.90;;;;;;5046387;28;20037;-45
2022/01/12 10:52:06;;;;;;;77.28;33.65;;;4.10;99.90;;;;;;5055390;28;20315;-45
2022/01/12 10:55:06;;;;;;;72.00;32.95;;;4.20;99.90;;;;;;5066923;28;20390;-45
2022/01/12 10:57:35;;;;;;;68.57;30.27;;;4.20;99.90;;;;;;5040249;28;20411;-44
2022/01/12 11:00:19;;;;;;;71.60;33.25;;;4.30;99.90;;;;;;5060813;28;20064;-46
2022/01/12 11:02:50;;;;;;;68.65;31.42;;;4.30;99.90;;;;;;5065260;28;20021;-45
2022/01/12 11:05:18;;;;;;;70.70;33.15;;;4.40;99.90;;;;;;5067651;28;20016;-46
2022/01/12 11:07:44;;;;;;;77.93;33.83;;;4.40;99.90;;;;;;5067154;28;20078;-46
2022/01/12 11:10:11;;;;;;;76.07;34.50;;;4.40;99.90;;;;;;5056560;28;20048;-44
2022/01/12 11:12:38;;;;;;;71.13;33.42;;;4.40;99.90;;;;;;5057538;28;20036;-46
2022/01/12 11:15:08;;;;;;;79.65;36.55;;;4.40;99.90;;;;;;5067654;28;20395;-46
2022/01/12 11:17:34;;;;;;;83.80;36.90;;;4.40;99.90;;;;;;5056025;28;20406;-45
2022/01/12 11:20:12;;;;;;;78.50;35.42;;;4.40;99.90;;;;;;5064785;28;20036;-45
2022/01/12 11:23:00;;;;;;;81.35;36.30;;;4.40;99.90;;;;;;5053124;28;20552;-46
2022/01/12 11:25:28;;;;;;;83.63;38.45;;;4.50;99.90;;;;;;5060007;28;20047;-46
2022/01/12 11:28:24;;;;;;;81.20;37.20;;;4.50;99.90;;;;;;5046493;28;20017;-45
2022/01/12 11:30:56;;;;;;;84.53;39.55;;;4.50;99.90;;;;;;5047365;28;20151;-45
2022/01/12 11:33:29;;;;;;;82.43;36.30;;;4.50;99.90;;;;;;5047315;28;20046;-45
2022/01/12 11:35:54;;;;;;;88.55;40.63;;;4.60;99.90;;;;;;5046816;28;20029;-45
2022/01/12 11:38:22;;;;;;;90.28;37.28;;;4.70;99.90;;;;;;5056416;28;20061;-45
2022/01/12 11:40:47;;;;;;;94.70;39.75;;;4.70;99.90;;;;;;5063600;28;20144;-46
2022/01/12 11:43:25;;;;;;;78.00;36.35;;;4.70;99.90;;;;;;5063398;28;20664;-48
2022/01/12 11:46:12;;;;;;;93.65;41.72;;;4.70;99.90;;;;;;5047607;28;20466;-45
2022/01/12 11:48:48;;;;;;;84.60;37.72;;;4.60;99.90;;;;;;5054051;28;20035;-45
2022/01/12 11:51:16;;;;;;;90.13;38.13;;;4.70;99.90;;;;;;5060472;28;20028;-45
2022/01/12 11:53:54;;;;;;;90.00;38.70;;;4.60;99.90;;;;;;5064163;28;20017;-45
2022/01/12 11:56:25;;;;;;;92.82;40.03;;;4.60;99.90;;;;;;5064302;28;20062;-46
2022/01/12 11:58:59;;;;;;;89.90;38.90;;;4.60;99.90;;;;;;5049391;28;20136;-45
2022/01/12 12:01:37;;;;;;;92.03;39.28;;;4.60;99.90;;;;;;5057451;28;20021;-45
2022/01/12 12:04:04;;;;;;;89.93;38.33;;;4.60;99.90;;;;;;5049431;28;20463;-45
2022/01/12 12:06:30;;;;;;;88.63;37.60;;;4.60;99.90;;;;;;5051239;28;20062;-45
2022/01/12 12:08:58;;;;;;;91.90;39.47;;;4.50;99.90;;;;;;5065629;28;20103;-44
2022/01/12 12:11:32;;;;;;;90.05;36.42;;;4.50;99.90;;;;;;5065724;28;20028;-44
2022/01/12 12:14:06;;;;;;;90.70;37.88;;;4.60;99.90;;;;;;5075309;28;20036;-45
2022/01/12 12:16:33;;;;;;;81.78;36.95;;;4.60;99.90;;;;;;5089958;28;20062;-45
2022/01/12 12:19:02;;;;;;;86.93;35.63;;;4.70;99.90;;;;;;5071318;28;20507;-45
2022/01/12 12:21:28;;;;;;;80.35;35.05;;;4.70;99.90;;;;;;5071176;28;20024;-45
2022/01/12 12:23:53;;;;;;;76.50;35.45;;;4.70;99.90;;;;;;5071061;28;20035;-44
2022/01/12 12:26:22;;;;;;;73.50;33.17;;;4.70;99.90;;;;;;5069929;28;20028;-45
2022/01/12 12:28:55;;;;;;;76.88;36.17;;;4.80;99.90;;;;;;5068797;28;20027;-45
2022/01/12 12:31:25;;;;;;;78.53;35.78;;;4.70;99.90;;;;;;5069526;28;20027;-44
2022/01/12 12:34:05;;;;;;;84.32;36.80;;;4.70;99.90;;;;;;5053742;28;20021;-45
2022/01/12 12:36:32;;;;;;;82.82;37.20;;;4.70;99.90;;;;;;5055123;28;20395;-45
2022/01/12 12:39:24;;;;;;;77.50;35.30;;;4.60;99.90;;;;;;5076688;28;20039;-45
2022/01/12 12:41:50;;;;;;;83.97;37.63;;;4.70;99.90;;;;;;5073085;28;20127;-45
2022/01/12 12:44:22;;;;;;;81.22;36.10;;;4.60;99.90;;;;;;5079415;28;20016;-45
2022/01/12 12:46:52;;;;;;;85.13;35.72;;;4.60;99.90;;;;;;5088429;28;20085;-45
2022/01/12 12:49:18;;;;;;;80.47;36.45;;;4.70;99.90;;;;;;5073299;28;20043;-45
2022/01/12 12:51:44;;;;;;;73.63;32.97;;;4.60;99.90;;;;;;5050567;28;20122;-45
2022/01/12 12:54:12;;;;;;;67.07;29.65;;;4.70;99.90;;;;;;5060630;28;20411;-44
2022/01/12 12:56:43;;;;;;;60.95;29.63;;;4.70;99.90;;;;;;5083187;28;20071;-45
2022/01/12 12:59:08;;;;;;;65.38;29.95;;;4.70;99.90;;;;;;5077119;28;20541;-44
2022/01/12 13:01:34;;;;;;;62.25;29.00;;;4.60;99.90;;;;;;5058616;28;20116;-45
2022/01/12 13:04:02;;;;;;;70.30;30.15;;;4.60;99.90;;;;;;5060929;28;20037;-45
2022/01/12 13:06:33;;;;;;;63.20;29.63;;;4.60;99.90;;;;;;5058354;28;20028;-45
2022/01/12 13:09:05;;;;;;;63.75;31.65;;;4.60;99.90;;;;;;5060150;28;20028;-45
2022/01/12 13:11:39;;;;;;;65.20;30.50;;;4.50;99.90;;;;;;5057495;28;20055;-45
2022/01/12 13:14:10;;;;;;;76.45;32.33;;;4.50;99.90;;;;;;5058326;28;20115;-44
2022/01/12 13:16:44;;;;;;;59.30;27.65;;;4.40;99.90;;;;;;5059923;28;20033;-46
2022/01/12 13:19:21;;;;;;;65.28;29.85;;;4.40;99.90;;;;;;5058484;28;20044;-44
2022/01/12 13:21:48;;;;;;;60.53;28.10;;;4.40;99.90;;;;;;5059417;28;20474;-45
2022/01/12 13:24:13;;;;;;;68.88;28.13;;;4.40;99.90;;;;;;5054262;28;20033;-45
2022/01/12 13:26:40;;;;;;;63.80;29.70;;;4.40;99.90;;;;;;5057528;28;20025;-45
2022/01/12 13:29:11;;;;;;;61.35;27.70;;;4.40;99.90;;;;;;5060553;28;20060;-46
2022/01/12 13:31:38;;;;;;;52.08;24.27;;;4.30;99.90;;;;;;5057089;28;20713;-46
2022/01/12 13:34:04;;;;;;;61.05;25.85;;;4.30;99.90;;;;;;5058001;28;20021;-45
2022/01/12 13:36:32;;;;;;;60.95;27.25;;;4.30;99.90;;;;;;5062783;28;20024;-45
2022/01/12 13:39:06;;;;;;;58.72;26.65;;;4.30;99.90;;;;;;5059471;28;20493;-48
2022/01/12 13:41:38;;;;;;;54.88;23.98;;;4.30;99.90;;;;;;5058183;28;20182;-46
2022/01/12 13:44:07;;;;;;;59.58;26.70;;;4.30;99.90;;;;;;5061086;28;20028;-45
2022/01/12 13:47:00;;;;;;;54.90;26.13;;;4.30;99.90;;;;;;5059658;28;20963;-45
2022/01/12 13:49:26;;;;;;;50.47;23.63;;;4.30;99.90;;;;;;5059883;28;20060;-45
2022/01/12 13:52:01;;;;;;;52.85;22.67;;;4.40;99.90;;;;;;5057139;28;20025;-45
2022/01/12 13:54:29;;;;;;;44.95;20.83;;;4.40;99.90;;;;;;5060149;28;20028;-47
2022/01/12 13:56:56;;;;;;;41.97;20.13;;;4.40;99.90;;;;;;5056318;28;20461;-45
2022/01/12 13:59:25;;;;;;;43.92;20.75;;;4.40;99.90;;;;;;5056756;28;20477;-46
2022/01/12 14:01:51;;;;;;;52.92;21.90;;;4.40;99.90;;;;;;5062072;28;20389;-45
2022/01/12 14:04:37;;;;;;;47.65;21.02;;;4.40;99.90;;;;;;5058468;28;20028;-46
2022/01/12 14:07:05;;;;;;;42.78;21.70;;;4.40;99.90;;;;;;5058908;28;20066;-46